Time;durP1;ratioP1;P1;durP2;ratioP2;P2;SDS_P1;SDS_P2;PMS_P1;PMS_P2;Temp;Humidity;BMP_temperature;BMP_pressure;BME280_temperature;BME280_humidity;BME280_pressure;Samples;Min_cycle;Max_cycle;Signal;HPM_P1;HPM_P2
2021/07/06 00:00:58;;;;;;;2.15;1.90;;;;;;;16.79;100.00;99736.72;5037776;28;20080;-55
2021/07/06 00:03:26;;;;;;;3.47;1.95;;;;;;;16.78;100.00;99725.06;5035454;28;20073;-58
2021/07/06 00:05:55;;;;;;;3.63;2.10;;;;;;;16.75;100.00;99720.16;5038969;28;20041;-58
2021/07/06 00:08:23;;;;;;;2.17;1.90;;;;;;;16.77;100.00;99723.47;5042461;28;20494;-58
2021/07/06 00:10:51;;;;;;;3.38;1.75;;;;;;;16.81;100.00;99721.09;5040453;28;20049;-58
2021/07/06 00:13:19;;;;;;;4.25;2.55;;;;;;;16.84;100.00;99702.59;5041290;28;20033;-63
2021/07/06 00:15:48;;;;;;;2.72;2.10;;;;;;;16.81;100.00;99695.00;5040560;28;20068;-60
2021/07/06 00:18:16;;;;;;;3.22;1.85;;;;;;;16.78;100.00;99691.91;5035712;28;20053;-58
2021/07/06 00:20:44;;;;;;;4.18;2.00;;;;;;;16.78;100.00;99692.72;5040334;28;20292;-58
2021/07/06 00:23:13;;;;;;;3.28;2.00;;;;;;;16.80;100.00;99687.94;5039811;28;20045;-58
2021/07/06 00:25:42;;;;;;;2.67;1.83;;;;;;;16.81;100.00;99683.38;5041619;28;20050;-60
2021/07/06 00:28:10;;;;;;;3.63;2.13;;;;;;;16.84;100.00;99685.59;5040574;28;20440;-59
2021/07/06 00:30:37;;;;;;;3.95;1.85;;;;;;;16.73;100.00;99675.59;5039591;28;20053;-59
2021/07/06 00:33:06;;;;;;;3.63;1.80;;;;;;;16.77;100.00;99672.25;5038681;28;20053;-59
2021/07/06 00:35:33;;;;;;;3.78;1.70;;;;;;;16.80;100.00;99671.78;5037652;28;20384;-58
2021/07/06 00:38:01;;;;;;;3.10;2.28;;;;;;;16.89;100.00;99664.19;5035117;28;20064;-57
2021/07/06 00:40:30;;;;;;;2.10;1.90;;;;;;;16.93;100.00;99659.16;5037492;28;20425;-60
2021/07/06 00:42:59;;;;;;;2.92;2.00;;;;;;;16.94;100.00;99644.59;5040019;28;20037;-60
2021/07/06 00:45:28;;;;;;;3.25;1.90;;;;;;;16.98;100.00;99645.78;5041380;28;20084;-59
2021/07/06 00:48:00;;;;;;;2.33;1.90;;;;;;;17.00;100.00;99631.03;5041352;28;20041;-59
2021/07/06 00:50:29;;;;;;;2.80;2.17;;;;;;;17.06;100.00;99618.47;5039834;28;20044;-58
2021/07/06 00:52:57;;;;;;;2.83;2.25;;;;;;;17.06;100.00;99615.78;5043709;28;20106;-60
2021/07/06 00:55:25;;;;;;;2.90;2.00;;;;;;;17.03;100.00;99618.94;5036644;28;20041;-60
2021/07/06 00:57:55;;;;;;;2.30;2.08;;;;;;;16.94;100.00;99625.72;5035854;28;20428;-58
2021/07/06 01:00:25;;;;;;;3.00;2.05;;;;;;;16.97;100.00;99614.50;5037698;28;20052;-57
2021/07/06 01:02:54;;;;;;;4.53;1.92;;;;;;;17.07;100.00;99595.84;5036457;28;20056;-59
2021/07/06 01:05:25;;;;;;;4.00;1.90;;;;;;;17.11;100.00;99593.47;5037241;28;20425;-59
2021/07/06 01:07:53;;;;;;;5.45;2.25;;;;;;;17.05;100.00;99595.25;5041554;28;20464;-59
2021/07/06 01:10:21;;;;;;;4.85;2.42;;;;;;;16.99;100.00;99590.81;5039052;28;20515;-59
2021/07/06 01:12:52;;;;;;;8.95;3.08;;;;;;;16.68;100.00;99576.59;5043115;28;20440;-59
2021/07/06 01:15:23;;;;;;;4.03;2.03;;;;;;;16.86;100.00;99572.97;5037195;28;20377;-60
2021/07/06 01:17:59;;;;;;;4.35;2.08;;;;;;;16.82;100.00;99564.50;5034053;28;20457;-59
2021/07/06 01:20:28;;;;;;;4.18;2.08;;;;;;;16.91;100.00;99551.56;5039091;28;20367;-59
2021/07/06 01:22:58;;;;;;;3.70;1.73;;;;;;;16.92;100.00;99538.88;5036919;28;20071;-59
2021/07/06 01:25:26;;;;;;;3.55;1.88;;;;;;;16.85;100.00;99537.09;5041263;28;20044;-59
2021/07/06 01:27:56;;;;;;;3.28;2.00;;;;;;;16.80;100.00;99550.47;5039538;28;20040;-59
2021/07/06 01:30:24;;;;;;;3.85;1.85;;;;;;;16.81;100.00;99557.50;5037802;28;20046;-60
2021/07/06 01:32:52;;;;;;;3.53;1.70;;;;;;;16.76;100.00;99561.94;5039306;28;20083;-59
2021/07/06 01:35:20;;;;;;;4.20;2.20;;;;;;;16.74;100.00;99555.97;5033769;28;20041;-59
2021/07/06 01:37:50;;;;;;;3.05;1.80;;;;;;;16.73;100.00;99555.16;5038126;28;20079;-59
2021/07/06 01:40:21;;;;;;;14.23;2.75;;;;;;;16.77;100.00;99534.75;5038460;28;20045;-59
2021/07/06 01:42:50;;;;;;;2.78;1.88;;;;;;;16.70;100.00;99528.66;5037675;28;20040;-59
2021/07/06 01:45:19;;;;;;;4.97;2.20;;;;;;;16.68;100.00;99530.75;5036388;28;20049;-59
2021/07/06 01:47:48;;;;;;;5.20;3.00;;;;;;;16.56;100.00;99535.31;5034946;28;20037;-59
2021/07/06 01:50:18;;;;;;;6.85;2.25;;;;;;;16.46;100.00;99527.84;5038264;28;20049;-59
2021/07/06 01:52:48;;;;;;;3.78;1.80;;;;;;;16.50;100.00;99529.84;5039795;28;20130;-59
2021/07/06 01:55:20;;;;;;;4.47;2.25;;;;;;;16.47;100.00;99529.47;5038182;28;20042;-59
2021/07/06 01:57:51;;;;;;;4.88;2.67;;;;;;;16.38;100.00;99523.59;5037952;28;20133;-58
2021/07/06 02:00:21;;;;;;;3.55;2.25;;;;;;;16.41;100.00;99531.22;5038859;28;20421;-59
2021/07/06 02:02:50;;;;;;;5.53;2.58;;;;;;;16.54;100.00;99519.38;5039557;28;20415;-63
2021/07/06 02:05:29;;;;;;;5.05;2.08;;;;;;;16.69;100.00;99514.34;5038778;28;20491;-59
2021/07/06 02:07:59;;;;;;;3.83;2.47;;;;;;;16.85;100.00;99493.97;5034207;28;20060;-56
2021/07/06 02:10:29;;;;;;;4.35;2.08;;;;;;;16.67;100.00;99492.22;5043629;28;20036;-58
2021/07/06 02:12:58;;;;;;;4.78;2.05;;;;;;;16.56;100.00;99492.22;5036797;28;20040;-58
2021/07/06 02:15:27;;;;;;;4.57;2.13;;;;;;;16.58;100.00;99484.72;5039954;28;20060;-58
2021/07/06 02:17:55;;;;;;;6.22;2.33;;;;;;;16.52;100.00;99486.47;5033228;28;20037;-59
2021/07/06 02:20:24;;;;;;;4.35;2.10;;;;;;;16.67;100.00;99504.84;5037467;28;20071;-59
2021/07/06 02:22:53;;;;;;;6.55;2.03;;;;;;;16.66;100.00;99500.53;5039194;28;20057;-59
2021/07/06 02:25:22;;;;;;;5.47;2.03;;;;;;;16.73;100.00;99495.84;5036119;28;20406;-59
2021/07/06 02:27:51;;;;;;;6.35;2.70;;;;;;;16.65;100.00;99501.59;5039899;28;20059;-59
2021/07/06 02:30:21;;;;;;;4.35;2.22;;;;;;;16.70;100.00;99486.34;5037334;28;20100;-60
2021/07/06 02:32:49;;;;;;;6.40;2.13;;;;;;;16.72;100.00;99499.59;5033435;28;20053;-59
2021/07/06 02:35:18;;;;;;;2.30;1.98;;;;;;;16.67;100.00;99502.16;5033438;28;20373;-59
2021/07/06 02:37:46;;;;;;;4.68;2.33;;;;;;;16.79;100.00;99502.97;5032276;28;20076;-57
2021/07/06 02:40:17;;;;;;;4.03;2.67;;;;;;;16.72;100.00;99494.19;5039741;28;20338;-60
2021/07/06 02:42:45;;;;;;;4.88;2.45;;;;;;;16.65;100.00;99501.59;5036412;28;20325;-59
2021/07/06 02:45:16;;;;;;;5.18;2.58;;;;;;;16.87;100.00;99497.22;5038632;28;20041;-58
2021/07/06 02:47:44;;;;;;;4.18;2.33;;;;;;;16.83;100.00;99493.38;5035920;28;20518;-58
2021/07/06 02:50:14;;;;;;;4.13;2.05;;;;;;;16.70;100.00;99504.41;5030228;28;20045;-58
2021/07/06 02:52:42;;;;;;;5.13;2.28;;;;;;;16.82;100.00;99510.59;5038473;28;20053;-57
2021/07/06 02:55:11;;;;;;;5.03;2.53;;;;;;;16.77;100.00;99504.28;5035635;28;20041;-57
2021/07/06 02:57:41;;;;;;;4.85;2.45;;;;;;;16.88;100.00;99492.69;5037263;28;20045;-58
2021/07/06 03:00:15;;;;;;;4.95;2.40;;;;;;;16.86;100.00;99497.47;5036806;28;20092;-59
2021/07/06 03:02:45;;;;;;;4.38;2.13;;;;;;;16.96;100.00;99508.50;5038125;28;20049;-59
2021/07/06 03:05:14;;;;;;;6.88;2.53;;;;;;;17.01;100.00;99502.38;5036969;28;20038;-58
2021/07/06 03:07:43;;;;;;;4.93;2.50;;;;;;;17.21;100.00;99494.72;5037784;28;20364;-59
2021/07/06 03:10:13;;;;;;;4.18;2.03;;;;;;;17.50;100.00;99505.53;5039550;28;20314;-58
2021/07/06 03:12:42;;;;;;;5.93;2.30;;;;;;;17.59;100.00;99505.16;5040307;28;20056;-58
2021/07/06 03:15:12;;;;;;;3.50;1.90;;;;;;;17.55;100.00;99502.94;5042198;28;20048;-60
2021/07/06 03:17:42;;;;;;;7.78;2.17;;;;;;;17.64;100.00;99508.78;5041399;28;20037;-59
2021/07/06 03:20:12;;;;;;;5.70;2.22;;;;;;;17.66;100.00;99517.47;5039517;28;20122;-59
2021/07/06 03:22:40;;;;;;;7.38;1.98;;;;;;;17.58;100.00;99517.00;5042423;28;20381;-59
2021/07/06 03:25:10;;;;;;;5.28;2.08;;;;;;;17.99;100.00;99496.16;5037655;28;20143;-59
2021/07/06 03:27:39;;;;;;;4.60;2.15;;;;;;;17.79;100.00;99496.59;5035044;28;20391;-59
2021/07/06 03:30:09;;;;;;;4.45;2.10;;;;;;;17.87;100.00;99505.13;5044571;28;20045;-59
2021/07/06 03:32:37;;;;;;;4.72;2.33;;;;;;;17.85;100.00;99491.06;5036791;28;20045;-59
2021/07/06 03:35:08;;;;;;;4.05;2.13;;;;;;;18.06;100.00;99496.84;5040804;28;20469;-59
2021/07/06 03:37:36;;;;;;;4.82;1.92;;;;;;;18.16;100.00;99505.13;5038773;28;20375;-59
2021/07/06 03:40:07;;;;;;;3.92;2.00;;;;;;;18.15;100.00;99508.06;5042341;28;20048;-59
2021/07/06 03:42:35;;;;;;;6.70;2.15;;;;;;;18.08;100.00;99510.13;5037621;28;20045;-59
2021/07/06 03:45:03;;;;;;;3.40;1.95;;;;;;;17.99;100.00;99521.31;5038652;28;20033;-59
2021/07/06 03:47:34;;;;;;;4.38;2.05;;;;;;;18.06;100.00;99521.16;5035391;28;20047;-59
2021/07/06 03:50:04;;;;;;;3.55;1.65;;;;;;;18.16;100.00;99529.44;5041370;28;21375;-59
2021/07/06 03:52:35;;;;;;;5.90;2.30;;;;;;;18.12;100.00;99522.88;5038344;28;20358;-59
2021/07/06 03:55:04;;;;;;;4.78;2.00;;;;;;;18.49;100.00;99527.78;5039152;28;20041;-59
2021/07/06 03:57:32;;;;;;;6.07;2.17;;;;;;;18.52;100.00;99543.50;5038271;28;20106;-59
2021/07/06 04:00:01;;;;;;;3.88;2.13;;;;;;;18.39;100.00;99539.25;5039919;28;20369;-59
2021/07/06 04:02:29;;;;;;;5.28;2.13;;;;;;;18.32;100.00;99552.13;5038754;28;20044;-59
2021/07/06 04:04:57;;;;;;;4.10;2.30;;;;;;;18.22;100.00;99558.16;5039090;28;20373;-59
2021/07/06 04:07:24;;;;;;;4.32;1.90;;;;;;;18.17;100.00;99550.00;5037001;28;20315;-59
2021/07/06 04:09:54;;;;;;;4.68;2.55;;;;;;;18.17;100.00;99552.69;5035942;28;20049;-59
2021/07/06 04:12:26;;;;;;;4.30;1.70;;;;;;;18.10;100.00;99554.69;5041966;28;20055;-59
2021/07/06 04:14:54;;;;;;;5.75;1.95;;;;;;;17.95;100.00;99557.16;5036591;28;20045;-59
2021/07/06 04:17:22;;;;;;;6.10;3.45;;;;;;;17.92;100.00;99560.31;5031652;28;20433;-59
2021/07/06 04:19:50;;;;;;;4.05;1.95;;;;;;;17.92;100.00;99539.56;5041074;28;20075;-59
2021/07/06 04:22:18;;;;;;;5.30;1.90;;;;;;;18.00;100.00;99557.22;5035897;28;20320;-59
2021/07/06 04:24:46;;;;;;;4.20;1.83;;;;;;;17.97;100.00;99557.72;5037776;28;20052;-59
2021/07/06 04:27:15;;;;;;;5.03;2.72;;;;;;;18.14;100.00;99547.75;5031528;28;20049;-60
2021/07/06 04:29:43;;;;;;;4.95;1.98;;;;;;;17.98;100.00;99557.47;5037336;28;20045;-60
2021/07/06 04:32:11;;;;;;;4.53;1.73;;;;;;;17.89;100.00;99546.22;5038177;28;20200;-59
2021/07/06 04:34:41;;;;;;;2.97;1.40;;;;;;;18.17;100.00;99551.84;5039008;28;20399;-60
2021/07/06 04:37:09;;;;;;;3.38;1.50;;;;;;;18.20;100.00;99546.78;5036810;28;20700;-60
2021/07/06 04:39:37;;;;;;;6.25;2.05;;;;;;;18.22;100.00;99551.94;5035256;28;20049;-61
2021/07/06 04:42:05;;;;;;;6.53;2.03;;;;;;;18.13;100.00;99545.28;5034964;28;20441;-60
2021/07/06 04:44:34;;;;;;;3.97;1.92;;;;;;;18.22;100.00;99539.25;5038915;28;20230;-59
2021/07/06 04:47:03;;;;;;;4.68;2.00;;;;;;;18.15;100.00;99537.78;5031085;28;20103;-60
2021/07/06 04:49:31;;;;;;;5.47;1.35;;;;;;;18.13;100.00;99546.13;5040153;28;20033;-59
2021/07/06 04:51:59;;;;;;;4.90;1.63;;;;;;;18.18;100.00;99538.09;5037566;28;20041;-60
2021/07/06 04:54:27;;;;;;;3.05;1.70;;;;;;;18.14;100.00;99546.94;5037333;28;20033;-59
2021/07/06 04:56:55;;;;;;;2.17;1.60;;;;;;;18.00;100.00;99547.25;5038394;28;20029;-58
2021/07/06 04:59:25;;;;;;;6.38;1.70;;;;;;;18.26;100.00;99538.75;5034463;28;20040;-60
2021/07/06 05:01:58;;;;;;;2.40;1.50;;;;;;;18.29;100.00;99549.09;5038917;28;20053;-60
2021/07/06 05:04:26;;;;;;;2.55;1.30;;;;;;;17.94;100.00;99536.59;5035010;28;20037;-59
2021/07/06 05:06:54;;;;;;;3.72;1.40;;;;;;;17.79;100.00;99529.84;5034117;28;20037;-60
2021/07/06 05:09:22;;;;;;;2.78;1.10;;;;;;;17.64;100.00;99538.47;5038863;28;20047;-59
2021/07/06 05:11:50;;;;;;;6.78;1.20;;;;;;;17.49;100.00;99541.69;5035278;28;20041;-59
2021/07/06 05:14:19;;;;;;;2.63;1.30;;;;;;;17.17;100.00;99534.03;5034839;28;20041;-60
2021/07/06 05:16:47;;;;;;;4.22;1.38;;;;;;;17.17;100.00;99534.03;5033172;28;20055;-60
2021/07/06 05:19:16;;;;;;;4.38;1.20;;;;;;;17.23;100.00;99537.66;5037881;28;20439;-60
2021/07/06 05:21:44;;;;;;;1.80;1.10;;;;;;;17.27;100.00;99532.63;5035162;28;20786;-60
2021/07/06 05:24:12;;;;;;;7.22;1.60;;;;;;;17.19;100.00;99534.59;5036541;28;20057;-60
2021/07/06 05:26:40;;;;;;;4.00;1.35;;;;;;;17.01;100.00;99540.13;5033089;28;20467;-60
2021/07/06 05:29:08;;;;;;;8.65;1.17;;;;;;;17.10;100.00;99536.03;5032327;28;20041;-60
2021/07/06 05:31:36;;;;;;;5.60;1.27;;;;;;;16.88;100.00;99546.59;5037518;28;20045;-60
2021/07/06 05:34:04;;;;;;;4.85;1.20;;;;;;;17.03;100.00;99556.91;5038883;28;20067;-60
2021/07/06 05:36:33;;;;;;;3.00;1.10;;;;;;;17.14;100.00;99566.06;5032962;28;20045;-61
2021/07/06 05:39:01;;;;;;;8.10;1.90;;;;;;;17.08;100.00;99565.13;5035955;28;20061;-60
2021/07/06 05:41:29;;;;;;;6.78;1.90;;;;;;;17.28;100.00;99577.41;5039143;28;20052;-60
2021/07/06 05:43:57;;;;;;;5.57;1.92;;;;;;;17.58;100.00;99568.28;5040740;28;20617;-60
2021/07/06 05:46:28;;;;;;;2.95;1.20;;;;;;;17.58;100.00;99574.53;5030014;28;20441;-61
2021/07/06 05:48:56;;;;;;;4.95;1.30;;;;;;;17.31;100.00;99558.88;5035098;28;20055;-61
2021/07/06 05:51:24;;;;;;;3.95;1.40;;;;;;;17.47;100.00;99560.00;5038204;28;20033;-60
2021/07/06 05:53:53;;;;;;;3.38;1.20;;;;;;;17.37;100.00;99570.59;5039071;28;20045;-60
2021/07/06 05:56:21;;;;;;;3.95;1.20;;;;;;;17.25;100.00;99572.47;5038949;28;20048;-60
2021/07/06 05:58:50;;;;;;;2.30;1.02;;;;;;;16.93;100.00;99576.38;5035601;28;20329;-60
2021/07/06 06:01:18;;;;;;;2.22;1.25;;;;;;;17.12;100.00;99577.06;5035873;28;20053;-60
2021/07/06 06:03:46;;;;;;;7.53;1.35;;;;;;;17.07;100.00;99571.56;5038410;28;20045;-60
2021/07/06 06:06:14;;;;;;;5.10;1.10;;;;;;;16.86;100.00;99563.00;5032402;28;20060;-60
2021/07/06 06:08:42;;;;;;;1.67;0.88;;;;;;;17.17;100.00;99581.78;5035734;28;20045;-60
2021/07/06 06:11:11;;;;;;;3.05;1.40;;;;;;;17.51;100.00;99571.13;5040049;28;20037;-60
2021/07/06 06:13:39;;;;;;;2.90;0.95;;;;;;;17.60;100.00;99574.28;5039633;28;20053;-61
2021/07/06 06:16:10;;;;;;;3.75;1.00;;;;;;;17.91;100.00;99570.31;5036189;28;20444;-60
2021/07/06 06:18:38;;;;;;;4.05;1.20;;;;;;;18.45;100.00;99559.06;5032767;28;20052;-60
2021/07/06 06:21:06;;;;;;;5.45;1.10;;;;;;;18.34;100.00;99577.03;5035222;28;20056;-60
2021/07/06 06:23:34;;;;;;;3.10;1.02;;;;;;;18.84;100.00;99571.81;5038875;28;20321;-60
2021/07/06 06:26:02;;;;;;;3.40;1.42;;;;;;;17.89;100.00;99584.03;5035955;28;20340;-60
2021/07/06 06:28:31;;;;;;;6.53;1.60;;;;;;;17.81;100.00;99586.31;5035657;28;20041;-60
2021/07/06 06:31:00;;;;;;;3.25;1.52;;;;;;;17.91;100.00;99585.72;5033584;28;20044;-60
2021/07/06 06:33:28;;;;;;;4.68;1.40;;;;;;;18.18;100.00;99581.31;5037631;28;20045;-60
2021/07/06 06:35:55;;;;;;;3.65;1.30;;;;;;;18.14;100.00;99582.06;5035456;28;20052;-60
2021/07/06 06:38:23;;;;;;;8.40;1.67;;;;;;;18.83;100.00;99581.84;5035480;28;20086;-60
2021/07/06 06:40:51;;;;;;;2.45;1.42;;;;;;;19.27;100.00;99590.06;5037572;28;20056;-61
2021/07/06 06:43:19;;;;;;;4.90;1.40;;;;;;;19.09;100.00;99593.88;5037279;28;20045;-61
2021/07/06 06:45:48;;;;;;;3.08;1.23;;;;;;;18.90;100.00;99574.41;5036858;28;20037;-60
2021/07/06 06:48:16;;;;;;;3.95;1.30;;;;;;;20.27;100.00;99599.88;5031588;28;20045;-60
2021/07/06 06:50:44;;;;;;;5.15;1.38;;;;;;;19.74;100.00;99586.00;5033386;28;20099;-61
2021/07/06 06:53:12;;;;;;;4.95;1.40;;;;;;;18.99;100.00;99614.56;5036679;28;20037;-61
2021/07/06 06:55:40;;;;;;;4.63;1.63;;;;;;;19.03;100.00;99591.34;5034499;28;20056;-60
2021/07/06 06:58:08;;;;;;;2.72;1.02;;;;;;;18.97;100.00;99593.16;5035707;28;20044;-60
2021/07/06 07:00:36;;;;;;;3.67;1.35;;;;;;;19.27;100.00;99600.88;5038026;28;20321;-60
2021/07/06 07:03:06;;;;;;;3.03;1.85;;;;;;;19.42;100.00;99610.25;5034992;28;20049;-61
2021/07/06 07:05:34;;;;;;;10.73;1.48;;;;;;;20.38;100.00;99610.81;5033555;28;20138;-61
2021/07/06 07:08:02;;;;;;;4.05;1.80;;;;;;;18.85;100.00;99608.63;5032442;28;20049;-61
2021/07/06 07:10:30;;;;;;;6.53;1.95;;;;;;;19.36;100.00;99616.69;5038875;28;20037;-61
2021/07/06 07:12:58;;;;;;;8.57;1.80;;;;;;;19.80;100.00;99605.06;5034425;28;20047;-61
2021/07/06 07:15:26;;;;;;;8.98;1.95;;;;;;;20.21;100.00;99610.91;5037121;28;20067;-61
2021/07/06 07:17:54;;;;;;;12.23;1.83;;;;;;;19.92;100.00;99608.47;5033929;28;20357;-61
2021/07/06 07:20:23;;;;;;;6.10;1.13;;;;;;;18.93;100.00;99609.06;5033314;28;20041;-61
2021/07/06 07:22:51;;;;;;;5.70;1.35;;;;;;;20.26;100.00;99602.84;5037827;28;20047;-61
2021/07/06 07:25:20;;;;;;;5.00;1.20;;;;;;;20.07;100.00;99626.75;5032618;28;20042;-60
2021/07/06 07:27:49;;;;;;;5.18;1.20;;;;;;;19.31;100.00;99622.03;5033039;28;20293;-60
2021/07/06 07:30:21;;;;;;;4.00;1.67;;;;;;;19.36;100.00;99617.50;5035169;28;20045;-60
2021/07/06 07:32:50;;;;;;;8.43;1.70;;;;;;;19.73;100.00;99613.34;5035359;28;20040;-60
2021/07/06 07:35:19;;;;;;;9.10;1.63;;;;;;;19.16;100.00;99611.81;5035063;28;20128;-60
2021/07/06 07:37:49;;;;;;;8.05;2.22;;;;;;;19.46;100.00;99597.06;5028673;28;20049;-61
2021/07/06 07:40:19;;;;;;;6.60;1.33;;;;;;;20.32;100.00;99638.94;5038479;28;20422;-61
2021/07/06 07:42:48;;;;;;;6.43;1.50;;;;;;;20.41;100.00;99627.38;5033669;28;20041;-60
2021/07/06 07:45:17;;;;;;;4.45;1.60;;;;;;;19.36;100.00;99641.84;5036125;28;20386;-61
2021/07/06 07:47:45;;;;;;;4.80;1.48;;;;;;;19.46;100.00;99637.66;5034369;28;20437;-60
2021/07/06 07:50:13;;;;;;;5.72;1.70;;;;;;;20.30;100.00;99629.16;5034480;28;20049;-60
2021/07/06 07:52:45;;;;;;;7.57;2.40;;;;;;;21.59;100.00;99635.56;5036284;28;20429;-61
2021/07/06 07:55:15;;;;;;;6.25;3.15;;;;;;;20.00;100.00;99629.66;5041041;28;20048;-60
2021/07/06 07:57:43;;;;;;;7.57;1.60;;;;;;;20.58;100.00;99619.13;5035800;28;20052;-60
2021/07/06 08:00:12;;;;;;;10.40;2.05;;;;;;;19.72;100.00;99641.53;5040932;28;20045;-60
2021/07/06 08:02:44;;;;;;;4.30;1.52;;;;;;;19.67;100.00;99630.63;5037856;28;20124;-60
2021/07/06 08:05:15;;;;;;;8.43;1.48;;;;;;;19.74;100.00;99612.28;5046100;28;20049;-60
2021/07/06 08:07:43;;;;;;;9.68;1.92;;;;;;;19.88;100.00;99645.25;5036247;28;20107;-61
2021/07/06 08:10:11;;;;;;;7.85;1.40;;;;;;;20.88;100.00;99647.59;5040225;28;20384;-60
2021/07/06 08:12:41;;;;;;;6.75;2.10;;;;;;;20.01;100.00;99644.03;5039908;28;20048;-61
2021/07/06 08:15:12;;;;;;;11.60;1.98;;;;;;;19.21;100.00;99650.59;5038713;28;20487;-60
2021/07/06 08:17:43;;;;;;;6.60;1.45;;;;;;;20.42;100.00;99655.31;5036399;28;20050;-60
2021/07/06 08:20:15;;;;;;;4.40;1.45;;;;;;;20.01;100.00;99649.47;5038549;28;20048;-61
2021/07/06 08:22:43;;;;;;;7.78;1.85;;;;;;;19.19;100.00;99655.41;5039372;28;20272;-60
2021/07/06 08:25:12;;;;;;;5.50;1.83;;;;;;;18.86;100.00;99638.13;5036455;28;20060;-60
2021/07/06 08:27:42;;;;;;;7.78;1.65;;;;;;;19.37;100.00;99654.31;5033313;28;20045;-60
2021/07/06 08:30:11;;;;;;;8.57;1.77;;;;;;;18.80;100.00;99658.06;5037369;28;20313;-60
2021/07/06 08:32:39;;;;;;;10.15;1.55;;;;;;;18.54;100.00;99648.69;5037539;28;20083;-60
2021/07/06 08:35:11;;;;;;;5.78;1.80;;;;;;;18.55;100.00;99651.13;5042626;28;20041;-60
2021/07/06 08:37:39;;;;;;;8.82;1.88;;;;;;;18.13;100.00;99632.59;5032811;28;20460;-60
2021/07/06 08:40:09;;;;;;;8.90;1.83;;;;;;;19.18;100.00;99648.38;5035032;28;20049;-60
2021/07/06 08:42:38;;;;;;;7.82;2.00;;;;;;;19.82;100.00;99652.50;5038369;28;20037;-61
2021/07/06 08:45:08;;;;;;;13.00;2.70;;;;;;;19.61;100.00;99649.50;5039256;28;20076;-61
2021/07/06 08:47:37;;;;;;;8.65;1.80;;;;;;;21.01;100.00;99656.34;5039786;28;20084;-61
2021/07/06 08:50:08;;;;;;;6.95;1.80;;;;;;;21.45;100.00;99665.06;5041662;28;20424;-61
2021/07/06 08:52:40;;;;;;;5.57;1.83;;;;;;;20.54;100.00;99664.09;5036900;28;20041;-61
2021/07/06 08:55:11;;;;;;;5.10;1.65;;;;;;;20.51;100.00;99656.47;5038180;28;20045;-61
2021/07/06 08:57:40;;;;;;;5.15;1.52;;;;;;;19.99;100.00;99667.84;5035383;28;20040;-61
2021/07/06 09:00:12;;;;;;;8.88;2.00;;;;;;;20.92;100.00;99675.00;5036478;28;20066;-61
2021/07/06 09:02:40;;;;;;;3.78;1.63;;;;;;;19.80;100.00;99672.78;5034023;28;20444;-61
2021/07/06 09:05:19;;;;;;;6.45;1.65;;;;;;;20.11;100.00;99673.97;5037907;28;20053;-61
2021/07/06 09:07:47;;;;;;;6.05;1.70;;;;;;;19.72;100.00;99679.44;5039410;28;20045;-60
2021/07/06 09:10:17;;;;;;;2.97;1.65;;;;;;;19.69;100.00;99686.16;5038773;28;20194;-60
2021/07/06 09:12:45;;;;;;;7.53;1.90;;;;;;;21.50;100.00;99696.84;5039714;28;20367;-61
2021/07/06 09:15:27;;;;;;;8.80;2.15;;;;;;;20.38;100.00;99695.66;5038261;28;20037;-60
2021/07/06 09:18:06;;;;;;;7.55;2.47;;;;;;;20.54;100.00;99691.22;5031880;28;20037;-60
2021/07/06 09:20:34;;;;;;;7.28;2.10;;;;;;;19.85;100.00;99699.94;5040146;28;20041;-60
2021/07/06 09:23:19;;;;;;;8.82;2.03;;;;;;;19.40;100.00;99715.28;5038369;28;20049;-60
2021/07/06 09:25:47;;;;;;;8.85;2.10;;;;;;;18.86;100.00;99704.94;5036321;28;20049;-60
2021/07/06 09:28:22;;;;;;;9.90;2.20;;;;;;;18.06;100.00;99715.66;5032924;28;20037;-60
2021/07/06 09:30:52;;;;;;;;;;;;;;;18.48;100.00;99720.75;5036519;28;20053;-60
2021/07/06 09:33:27;;;;;;;7.97;1.88;;;;;;;19.52;100.00;99702.47;5036632;28;19982;-61
2021/07/06 09:35:55;;;;;;;8.75;2.15;;;;;;;19.93;100.00;99713.88;5038285;28;20527;-60
2021/07/06 09:38:24;;;;;;;9.68;2.00;;;;;;;19.39;100.00;99719.88;5038440;28;20445;-60
2021/07/06 09:40:52;;;;;;;6.18;1.70;;;;;;;19.82;100.00;99714.81;5040777;28;20400;-60
2021/07/06 09:43:24;;;;;;;10.57;3.00;;;;;;;18.92;100.00;99709.38;5038297;28;20047;-59
2021/07/06 09:46:06;;;;;;;16.30;2.30;;;;;;;20.41;100.00;99730.41;5038334;28;20124;-60
2021/07/06 09:48:34;;;;;;;7.05;1.90;;;;;;;20.94;100.00;99738.00;5034976;28;20046;-59
2021/07/06 09:51:15;;;;;;;5.05;1.63;;;;;;;19.94;100.00;99715.47;5035751;28;20322;-60
2021/07/06 09:53:45;;;;;;;8.02;1.95;;;;;;;20.83;100.00;99731.66;5039633;28;20043;-60
2021/07/06 09:56:18;;;;;;;5.47;2.20;;;;;;;21.17;100.00;99736.81;5036360;28;20041;-61
2021/07/06 09:58:53;;;;;;;8.48;1.80;;;;;;;20.21;100.00;99741.81;5038388;28;20052;-59
2021/07/06 10:01:23;;;;;;;8.07;2.88;;;;;;;22.13;100.00;99755.91;5038150;28;20045;-61
2021/07/06 10:03:52;;;;;;;6.13;1.92;;;;;;;21.91;100.00;99745.19;5034046;28;20366;-61
2021/07/06 10:06:22;;;;;;;5.10;2.00;;;;;;;23.00;100.00;99749.84;5037901;28;20542;-60
2021/07/06 10:08:50;;;;;;;7.97;1.80;;;;;;;20.59;100.00;99748.19;5035521;28;20499;-60
2021/07/06 10:11:19;;;;;;;8.57;2.05;;;;;;;21.04;100.00;99770.63;5037668;28;20086;-60
2021/07/06 10:13:47;;;;;;;8.57;2.00;;;;;;;22.38;100.00;99771.50;5036665;28;20048;-60
2021/07/06 10:16:16;;;;;;;8.35;2.22;;;;;;;20.97;100.00;99768.13;5033969;28;20079;-60
2021/07/06 10:18:46;;;;;;;9.98;2.33;;;;;;;19.92;100.00;99776.44;5036085;28;20046;-59
2021/07/06 10:21:14;;;;;;;13.05;2.33;;;;;;;21.87;100.00;99755.75;5035865;28;20049;-59
2021/07/06 10:23:43;;;;;;;9.82;2.38;;;;;;;21.46;100.00;99774.47;5041018;28;20045;-60
2021/07/06 10:26:13;;;;;;;4.05;1.60;;;;;;;23.36;100.00;99779.81;5035207;28;20103;-60
2021/07/06 10:28:41;;;;;;;6.88;2.65;;;;;;;21.68;100.00;99782.56;5030053;28;20353;-60
2021/07/06 10:31:18;;;;;;;6.07;1.80;;;;;;;21.58;100.00;99771.63;5036072;28;20041;-61
2021/07/06 10:33:49;;;;;;;10.88;2.80;;;;;;;19.79;100.00;99780.31;5032845;28;20041;-60
2021/07/06 10:36:19;;;;;;;4.72;1.77;;;;;;;20.95;100.00;99773.00;5034237;28;20056;-60
2021/07/06 10:38:48;;;;;;;4.22;1.40;;;;;;;20.13;100.00;99786.47;5036408;28;20366;-60
2021/07/06 10:41:21;;;;;;;8.13;1.90;;;;;;;20.71;100.00;99783.34;5035501;28;20066;-60
2021/07/06 10:43:59;;;;;;;5.70;1.50;;;;;;;20.36;100.00;99794.59;5038614;28;20048;-60
2021/07/06 10:46:44;;;;;;;5.38;1.60;;;;;;;20.11;100.00;99783.16;5033156;28;20421;-60
2021/07/06 10:49:15;;;;;;;9.80;2.08;;;;;;;20.23;100.00;99793.06;5035134;28;20037;-60
2021/07/06 10:51:53;;;;;;;10.85;2.90;;;;;;;19.55;100.00;99795.91;5037331;28;20041;-60
2021/07/06 10:54:29;;;;;;;7.95;1.95;;;;;;;20.56;100.00;99802.94;5034812;28;20048;-61
2021/07/06 10:56:59;;;;;;;6.05;2.60;;;;;;;19.66;100.00;99794.16;5033803;28;20322;-60
2021/07/06 10:59:28;;;;;;;9.00;2.08;;;;;;;20.30;100.00;99804.56;5035836;28;20096;-60
2021/07/06 11:02:03;;;;;;;15.95;3.83;;;;;;;20.49;100.00;99779.84;5033611;28;20033;-61
2021/07/06 11:05:04;;;;;;;7.90;2.40;;;;;;;20.25;100.00;99818.03;5036799;28;20047;-60
2021/07/06 11:10:43;;;;;;;21.55;2.38;;;;;;;21.54;100.00;99806.63;5021065;28;20060;-60
2021/07/06 11:13:29;;;;;;;7.18;1.98;;;;;;;21.51;100.00;99818.00;5039869;28;20486;-59
2021/07/06 11:16:00;;;;;;;5.05;1.20;;;;;;;21.51;100.00;99839.72;5035266;28;20176;-60
2021/07/06 11:18:43;;;;;;;6.55;1.75;;;;;;;20.21;100.00;99833.16;5034099;28;20424;-60
2021/07/06 11:21:33;;;;;;;8.10;1.67;;;;;;;20.31;100.00;99825.16;5033961;28;20045;-60
2021/07/06 11:24:12;;;;;;;7.10;1.83;;;;;;;19.56;100.00;99836.28;5039119;28;20436;-60
2021/07/06 11:26:44;;;;;;;9.30;1.63;;;;;;;20.03;100.00;99831.56;5032898;28;20041;-60
2021/07/06 11:29:12;;;;;;;6.38;2.28;;;;;;;19.26;100.00;99832.00;5041926;28;20052;-60
2021/07/06 11:31:40;;;;;;;8.07;1.88;;;;;;;19.41;100.00;99834.13;5039088;28;20042;-59
2021/07/06 11:34:20;;;;;;;3.63;1.63;;;;;;;18.69;100.00;99842.81;5038226;28;20037;-59
2021/07/06 11:36:50;;;;;;;3.83;1.63;;;;;;;19.25;100.00;99843.03;5033636;28;20052;-59
2021/07/06 11:39:17;;;;;;;3.65;1.40;;;;;;;20.06;100.00;99850.84;5040400;28;20041;-59